sensor_id;sensor_type;location;lat;lon;timestamp;P1;durP1;ratioP1;P2;durP2;ratioP2
29358;SDS011;16347;53.232;6.556;2022-10-17T00:01:04;20.48;;;4.10;;
29358;SDS011;16347;53.232;6.556;2022-10-17T00:03:32;22.15;;;4.07;;
29358;SDS011;16347;53.232;6.556;2022-10-17T00:06:03;15.50;;;3.97;;
29358;SDS011;16347;53.232;6.556;2022-10-17T00:08:33;10.98;;;3.47;;
29358;SDS011;16347;53.232;6.556;2022-10-17T00:11:03;20.88;;;4.15;;
29358;SDS011;16347;53.232;6.556;2022-10-17T00:13:33;9.07;;;3.10;;
29358;SDS011;16347;53.232;6.556;2022-10-17T00:16:01;11.13;;;3.70;;
29358;SDS011;16347;53.232;6.556;2022-10-17T00:18:29;19.10;;;4.07;;
29358;SDS011;16347;53.232;6.556;2022-10-17T00:20:57;17.67;;;5.47;;
29358;SDS011;16347;53.232;6.556;2022-10-17T00:23:25;18.55;;;5.70;;
29358;SDS011;16347;53.232;6.556;2022-10-17T00:26:00;21.67;;;5.85;;
29358;SDS011;16347;53.232;6.556;2022-10-17T00:28:29;15.60;;;5.30;;
29358;SDS011;16347;53.232;6.556;2022-10-17T00:30:58;16.90;;;4.93;;
29358;SDS011;16347;53.232;6.556;2022-10-17T00:33:27;16.42;;;4.80;;
29358;SDS011;16347;53.232;6.556;2022-10-17T00:36:03;19.58;;;5.18;;
29358;SDS011;16347;53.232;6.556;2022-10-17T00:38:33;15.50;;;4.60;;
29358;SDS011;16347;53.232;6.556;2022-10-17T00:41:05;16.13;;;4.25;;
29358;SDS011;16347;53.232;6.556;2022-10-17T00:43:48;17.33;;;4.47;;
29358;SDS011;16347;53.232;6.556;2022-10-17T00:46:20;21.38;;;4.20;;
29358;SDS011;16347;53.232;6.556;2022-10-17T00:48:49;10.25;;;3.60;;
29358;SDS011;16347;53.232;6.556;2022-10-17T00:51:19;17.60;;;3.40;;
29358;SDS011;16347;53.232;6.556;2022-10-17T00:53:52;11.87;;;3.13;;
29358;SDS011;16347;53.232;6.556;2022-10-17T00:56:22;10.13;;;2.83;;
29358;SDS011;16347;53.232;6.556;2022-10-17T00:58:50;20.02;;;3.65;;
29358;SDS011;16347;53.232;6.556;2022-10-17T01:01:19;12.45;;;2.83;;
29358;SDS011;16347;53.232;6.556;2022-10-17T01:03:46;15.65;;;3.10;;
29358;SDS011;16347;53.232;6.556;2022-10-17T01:06:14;12.13;;;3.13;;
29358;SDS011;16347;53.232;6.556;2022-10-17T01:08:42;10.65;;;3.25;;
29358;SDS011;16347;53.232;6.556;2022-10-17T01:11:13;13.75;;;3.58;;
29358;SDS011;16347;53.232;6.556;2022-10-17T01:13:52;10.30;;;3.35;;
29358;SDS011;16347;53.232;6.556;2022-10-17T01:16:28;7.28;;;2.88;;
29358;SDS011;16347;53.232;6.556;2022-10-17T01:19:15;13.40;;;2.63;;
29358;SDS011;16347;53.232;6.556;2022-10-17T01:22:00;11.70;;;2.90;;
29358;SDS011;16347;53.232;6.556;2022-10-17T01:24:46;13.27;;;3.00;;
29358;SDS011;16347;53.232;6.556;2022-10-17T01:33:39;16.60;;;3.38;;
29358;SDS011;16347;53.232;6.556;2022-10-17T01:36:14;11.88;;;3.10;;
29358;SDS011;16347;53.232;6.556;2022-10-17T01:38:52;12.25;;;3.22;;
29358;SDS011;16347;53.232;6.556;2022-10-17T01:41:26;17.13;;;3.77;;
29358;SDS011;16347;53.232;6.556;2022-10-17T01:44:02;15.00;;;3.78;;
29358;SDS011;16347;53.232;6.556;2022-10-17T01:46:38;13.95;;;3.75;;
29358;SDS011;16347;53.232;6.556;2022-10-17T01:49:09;16.48;;;4.07;;
29358;SDS011;16347;53.232;6.556;2022-10-17T01:51:40;12.05;;;3.58;;
29358;SDS011;16347;53.232;6.556;2022-10-17T01:54:13;11.60;;;3.80;;
29358;SDS011;16347;53.232;6.556;2022-10-17T01:56:45;16.88;;;4.40;;
29358;SDS011;16347;53.232;6.556;2022-10-17T01:59:16;9.82;;;3.88;;
29358;SDS011;16347;53.232;6.556;2022-10-17T02:01:51;21.75;;;4.28;;
29358;SDS011;16347;53.232;6.556;2022-10-17T02:04:21;14.95;;;4.18;;
29358;SDS011;16347;53.232;6.556;2022-10-17T02:06:51;13.00;;;4.25;;
29358;SDS011;16347;53.232;6.556;2022-10-17T02:09:21;12.13;;;4.85;;
29358;SDS011;16347;53.232;6.556;2022-10-17T02:12:03;13.07;;;4.18;;
29358;SDS011;16347;53.232;6.556;2022-10-17T02:14:44;15.50;;;4.75;;
29358;SDS011;16347;53.232;6.556;2022-10-17T02:17:24;13.05;;;4.53;;
29358;SDS011;16347;53.232;6.556;2022-10-17T02:20:04;12.82;;;4.45;;
29358;SDS011;16347;53.232;6.556;2022-10-17T02:22:44;13.32;;;4.25;;
29358;SDS011;16347;53.232;6.556;2022-10-17T02:25:17;7.68;;;3.67;;
29358;SDS011;16347;53.232;6.556;2022-10-17T02:27:55;9.40;;;4.10;;
29358;SDS011;16347;53.232;6.556;2022-10-17T02:30:32;14.27;;;4.70;;
29358;SDS011;16347;53.232;6.556;2022-10-17T02:33:08;11.30;;;3.88;;
29358;SDS011;16347;53.232;6.556;2022-10-17T02:35:40;9.75;;;3.70;;
29358;SDS011;16347;53.232;6.556;2022-10-17T02:38:16;15.50;;;4.38;;
29358;SDS011;16347;53.232;6.556;2022-10-17T02:40:45;9.20;;;3.28;;
29358;SDS011;16347;53.232;6.556;2022-10-17T02:43:16;6.07;;;3.53;;
29358;SDS011;16347;53.232;6.556;2022-10-17T02:45:44;9.13;;;3.75;;
29358;SDS011;16347;53.232;6.556;2022-10-17T02:48:15;10.55;;;3.97;;
29358;SDS011;16347;53.232;6.556;2022-10-17T02:50:56;10.65;;;3.58;;
29358;SDS011;16347;53.232;6.556;2022-10-17T02:53:34;8.57;;;3.80;;
29358;SDS011;16347;53.232;6.556;2022-10-17T02:56:11;8.43;;;3.50;;
29358;SDS011;16347;53.232;6.556;2022-10-17T02:58:45;7.20;;;3.25;;
29358;SDS011;16347;53.232;6.556;2022-10-17T03:01:17;8.55;;;3.50;;
29358;SDS011;16347;53.232;6.556;2022-10-17T03:03:47;11.40;;;4.18;;
29358;SDS011;16347;53.232;6.556;2022-10-17T03:06:15;12.40;;;4.20;;
29358;SDS011;16347;53.232;6.556;2022-10-17T03:08:44;14.35;;;4.07;;
29358;SDS011;16347;53.232;6.556;2022-10-17T03:11:12;7.65;;;3.83;;
29358;SDS011;16347;53.232;6.556;2022-10-17T03:13:41;13.02;;;4.75;;
29358;SDS011;16347;53.232;6.556;2022-10-17T03:16:09;7.95;;;4.28;;
29358;SDS011;16347;53.232;6.556;2022-10-17T03:18:37;10.00;;;4.20;;
29358;SDS011;16347;53.232;6.556;2022-10-17T03:21:07;15.05;;;4.55;;
29358;SDS011;16347;53.232;6.556;2022-10-17T03:23:35;8.35;;;4.00;;
29358;SDS011;16347;53.232;6.556;2022-10-17T03:26:05;10.80;;;4.45;;
29358;SDS011;16347;53.232;6.556;2022-10-17T03:28:34;11.95;;;4.38;;
29358;SDS011;16347;53.232;6.556;2022-10-17T03:31:06;10.55;;;4.00;;
29358;SDS011;16347;53.232;6.556;2022-10-17T03:33:37;12.88;;;5.05;;
29358;SDS011;16347;53.232;6.556;2022-10-17T03:36:06;14.85;;;5.00;;
29358;SDS011;16347;53.232;6.556;2022-10-17T03:38:37;16.30;;;5.30;;
29358;SDS011;16347;53.232;6.556;2022-10-17T03:41:05;9.85;;;5.10;;
29358;SDS011;16347;53.232;6.556;2022-10-17T03:43:35;11.38;;;4.95;;
29358;SDS011;16347;53.232;6.556;2022-10-17T03:46:04;12.27;;;4.93;;
29358;SDS011;16347;53.232;6.556;2022-10-17T03:48:33;23.75;;;6.20;;
29358;SDS011;16347;53.232;6.556;2022-10-17T03:51:03;9.85;;;5.55;;
29358;SDS011;16347;53.232;6.556;2022-10-17T03:53:38;11.32;;;5.40;;
29358;SDS011;16347;53.232;6.556;2022-10-17T03:56:08;12.27;;;6.43;;
29358;SDS011;16347;53.232;6.556;2022-10-17T03:58:36;9.95;;;6.20;;
29358;SDS011;16347;53.232;6.556;2022-10-17T04:01:05;10.82;;;6.40;;
29358;SDS011;16347;53.232;6.556;2022-10-17T04:03:34;12.85;;;6.18;;
29358;SDS011;16347;53.232;6.556;2022-10-17T04:06:03;11.25;;;6.22;;
29358;SDS011;16347;53.232;6.556;2022-10-17T04:08:33;12.32;;;6.45;;
29358;SDS011;16347;53.232;6.556;2022-10-17T04:11:12;10.73;;;5.93;;
29358;SDS011;16347;53.232;6.556;2022-10-17T04:13:41;10.55;;;6.70;;
29358;SDS011;16347;53.232;6.556;2022-10-17T04:16:11;8.23;;;6.50;;
29358;SDS011;16347;53.232;6.556;2022-10-17T04:18:51;14.30;;;6.53;;
29358;SDS011;16347;53.232;6.556;2022-10-17T04:23:54;14.30;;;6.80;;
29358;SDS011;16347;53.232;6.556;2022-10-17T04:26:59;9.23;;;6.70;;
29358;SDS011;16347;53.232;6.556;2022-10-17T04:29:30;11.85;;;6.75;;
29358;SDS011;16347;53.232;6.556;2022-10-17T04:32:10;14.65;;;7.65;;
29358;SDS011;16347;53.232;6.556;2022-10-17T04:34:42;10.23;;;7.15;;
29358;SDS011;16347;53.232;6.556;2022-10-17T04:37:10;9.32;;;6.60;;
29358;SDS011;16347;53.232;6.556;2022-10-17T04:39:38;23.70;;;8.40;;
29358;SDS011;16347;53.232;6.556;2022-10-17T04:42:08;14.05;;;7.93;;
29358;SDS011;16347;53.232;6.556;2022-10-17T04:44:36;14.15;;;7.07;;
29358;SDS011;16347;53.232;6.556;2022-10-17T04:47:04;13.63;;;7.90;;
29358;SDS011;16347;53.232;6.556;2022-10-17T04:49:32;28.15;;;8.18;;
29358;SDS011;16347;53.232;6.556;2022-10-17T04:52:07;17.55;;;8.70;;
29358;SDS011;16347;53.232;6.556;2022-10-17T04:54:41;14.52;;;7.65;;
29358;SDS011;16347;53.232;6.556;2022-10-17T04:57:13;14.07;;;8.63;;
29358;SDS011;16347;53.232;6.556;2022-10-17T04:59:49;15.43;;;9.10;;
29358;SDS011;16347;53.232;6.556;2022-10-17T05:02:24;12.00;;;8.60;;
29358;SDS011;16347;53.232;6.556;2022-10-17T05:04:52;19.50;;;7.78;;
29358;SDS011;16347;53.232;6.556;2022-10-17T05:07:21;12.30;;;9.20;;
29358;SDS011;16347;53.232;6.556;2022-10-17T05:10:00;15.02;;;8.73;;
29358;SDS011;16347;53.232;6.556;2022-10-17T05:12:33;12.18;;;8.55;;
29358;SDS011;16347;53.232;6.556;2022-10-17T05:15:03;14.85;;;8.93;;
29358;SDS011;16347;53.232;6.556;2022-10-17T05:17:33;18.08;;;8.90;;
29358;SDS011;16347;53.232;6.556;2022-10-17T05:20:01;14.25;;;8.68;;
29358;SDS011;16347;53.232;6.556;2022-10-17T05:22:30;13.65;;;9.40;;
29358;SDS011;16347;53.232;6.556;2022-10-17T05:25:07;13.88;;;9.38;;
29358;SDS011;16347;53.232;6.556;2022-10-17T05:27:36;15.07;;;9.02;;
29358;SDS011;16347;53.232;6.556;2022-10-17T05:30:05;15.68;;;10.27;;
29358;SDS011;16347;53.232;6.556;2022-10-17T05:32:35;16.02;;;9.43;;
29358;SDS011;16347;53.232;6.556;2022-10-17T05:35:03;18.55;;;10.50;;
29358;SDS011;16347;53.232;6.556;2022-10-17T05:37:32;13.88;;;9.90;;
29358;SDS011;16347;53.232;6.556;2022-10-17T05:40:01;13.40;;;10.02;;
29358;SDS011;16347;53.232;6.556;2022-10-17T05:42:30;23.55;;;11.82;;
29358;SDS011;16347;53.232;6.556;2022-10-17T05:45:00;18.17;;;10.73;;
29358;SDS011;16347;53.232;6.556;2022-10-17T05:47:31;19.08;;;10.20;;
29358;SDS011;16347;53.232;6.556;2022-10-17T05:49:59;15.90;;;10.73;;
29358;SDS011;16347;53.232;6.556;2022-10-17T05:55:14;14.60;;;10.45;;
29358;SDS011;16347;53.232;6.556;2022-10-17T05:57:43;23.67;;;12.23;;
29358;SDS011;16347;53.232;6.556;2022-10-17T06:00:16;19.40;;;11.88;;
29358;SDS011;16347;53.232;6.556;2022-10-17T06:02:52;18.77;;;11.50;;
29358;SDS011;16347;53.232;6.556;2022-10-17T06:05:21;21.60;;;11.52;;
29358;SDS011;16347;53.232;6.556;2022-10-17T06:07:50;17.58;;;11.48;;
29358;SDS011;16347;53.232;6.556;2022-10-17T06:10:23;19.48;;;11.52;;
29358;SDS011;16347;53.232;6.556;2022-10-17T06:12:53;15.63;;;11.18;;
29358;SDS011;16347;53.232;6.556;2022-10-17T06:15:23;19.65;;;11.88;;
29358;SDS011;16347;53.232;6.556;2022-10-17T06:17:58;17.77;;;11.60;;
29358;SDS011;16347;53.232;6.556;2022-10-17T06:20:27;18.65;;;11.52;;
29358;SDS011;16347;53.232;6.556;2022-10-17T06:22:55;17.88;;;11.63;;
29358;SDS011;16347;53.232;6.556;2022-10-17T06:25:42;17.02;;;11.23;;
29358;SDS011;16347;53.232;6.556;2022-10-17T06:28:10;18.77;;;11.60;;
29358;SDS011;16347;53.232;6.556;2022-10-17T06:30:39;18.50;;;12.05;;
29358;SDS011;16347;53.232;6.556;2022-10-17T06:33:07;23.25;;;12.98;;
29358;SDS011;16347;53.232;6.556;2022-10-17T06:35:36;18.95;;;12.48;;
29358;SDS011;16347;53.232;6.556;2022-10-17T06:38:04;20.80;;;12.70;;
29358;SDS011;16347;53.232;6.556;2022-10-17T06:40:34;20.60;;;12.82;;
29358;SDS011;16347;53.232;6.556;2022-10-17T06:43:02;20.13;;;13.52;;
29358;SDS011;16347;53.232;6.556;2022-10-17T06:45:56;24.27;;;12.90;;
29358;SDS011;16347;53.232;6.556;2022-10-17T06:48:35;22.83;;;12.13;;
29358;SDS011;16347;53.232;6.556;2022-10-17T06:51:12;19.25;;;11.75;;
29358;SDS011;16347;53.232;6.556;2022-10-17T06:53:53;20.35;;;12.38;;
29358;SDS011;16347;53.232;6.556;2022-10-17T06:56:44;22.75;;;12.88;;
29358;SDS011;16347;53.232;6.556;2022-10-17T06:59:28;17.63;;;12.45;;
29358;SDS011;16347;53.232;6.556;2022-10-17T07:02:20;20.60;;;12.07;;
29358;SDS011;16347;53.232;6.556;2022-10-17T07:04:49;27.05;;;13.25;;
29358;SDS011;16347;53.232;6.556;2022-10-17T07:07:17;18.67;;;12.20;;
29358;SDS011;16347;53.232;6.556;2022-10-17T07:09:46;20.60;;;12.57;;
29358;SDS011;16347;53.232;6.556;2022-10-17T07:12:15;26.35;;;12.70;;
29358;SDS011;16347;53.232;6.556;2022-10-17T07:14:44;27.80;;;12.10;;
29358;SDS011;16347;53.232;6.556;2022-10-17T07:17:12;24.60;;;12.50;;
29358;SDS011;16347;53.232;6.556;2022-10-17T07:19:42;21.10;;;12.13;;
29358;SDS011;16347;53.232;6.556;2022-10-17T07:22:11;26.67;;;12.52;;
29358;SDS011;16347;53.232;6.556;2022-10-17T07:24:43;16.83;;;12.63;;
29358;SDS011;16347;53.232;6.556;2022-10-17T07:27:26;18.88;;;11.80;;
29358;SDS011;16347;53.232;6.556;2022-10-17T07:29:55;28.92;;;12.73;;
29358;SDS011;16347;53.232;6.556;2022-10-17T07:32:32;17.65;;;11.88;;
29358;SDS011;16347;53.232;6.556;2022-10-17T07:35:03;18.42;;;12.30;;
29358;SDS011;16347;53.232;6.556;2022-10-17T07:37:31;17.80;;;11.68;;
29358;SDS011;16347;53.232;6.556;2022-10-17T07:40:00;20.65;;;11.95;;
29358;SDS011;16347;53.232;6.556;2022-10-17T07:42:29;17.85;;;11.07;;
29358;SDS011;16347;53.232;6.556;2022-10-17T07:44:57;22.58;;;12.27;;
29358;SDS011;16347;53.232;6.556;2022-10-17T07:47:27;24.70;;;11.52;;
29358;SDS011;16347;53.232;6.556;2022-10-17T07:49:58;21.58;;;11.52;;
29358;SDS011;16347;53.232;6.556;2022-10-17T07:52:27;19.75;;;12.25;;
29358;SDS011;16347;53.232;6.556;2022-10-17T07:54:56;18.73;;;11.57;;
29358;SDS011;16347;53.232;6.556;2022-10-17T07:57:24;20.95;;;11.07;;
29358;SDS011;16347;53.232;6.556;2022-10-17T07:59:52;18.90;;;12.13;;
29358;SDS011;16347;53.232;6.556;2022-10-17T08:02:21;17.83;;;11.15;;
29358;SDS011;16347;53.232;6.556;2022-10-17T08:04:51;20.83;;;10.85;;
29358;SDS011;16347;53.232;6.556;2022-10-17T08:07:20;21.02;;;11.52;;
29358;SDS011;16347;53.232;6.556;2022-10-17T08:09:55;15.55;;;10.45;;
29358;SDS011;16347;53.232;6.556;2022-10-17T08:12:23;15.23;;;11.00;;
29358;SDS011;16347;53.232;6.556;2022-10-17T08:14:51;18.15;;;10.30;;
29358;SDS011;16347;53.232;6.556;2022-10-17T08:17:19;17.88;;;10.60;;
29358;SDS011;16347;53.232;6.556;2022-10-17T08:19:47;13.77;;;9.30;;
29358;SDS011;16347;53.232;6.556;2022-10-17T08:22:15;19.30;;;10.15;;
29358;SDS011;16347;53.232;6.556;2022-10-17T08:24:43;19.17;;;9.80;;
29358;SDS011;16347;53.232;6.556;2022-10-17T08:27:13;17.25;;;10.40;;
29358;SDS011;16347;53.232;6.556;2022-10-17T08:29:46;21.27;;;10.07;;
29358;SDS011;16347;53.232;6.556;2022-10-17T08:32:18;17.23;;;9.70;;
29358;SDS011;16347;53.232;6.556;2022-10-17T08:34:46;16.83;;;10.23;;
29358;SDS011;16347;53.232;6.556;2022-10-17T08:37:14;14.27;;;10.13;;
29358;SDS011;16347;53.232;6.556;2022-10-17T08:39:42;15.02;;;9.23;;
29358;SDS011;16347;53.232;6.556;2022-10-17T08:42:19;17.27;;;9.52;;
29358;SDS011;16347;53.232;6.556;2022-10-17T08:44:59;18.10;;;9.40;;
29358;SDS011;16347;53.232;6.556;2022-10-17T08:47:38;14.38;;;9.98;;
29358;SDS011;16347;53.232;6.556;2022-10-17T08:50:10;17.90;;;10.30;;
29358;SDS011;16347;53.232;6.556;2022-10-17T08:52:44;16.75;;;9.80;;
29358;SDS011;16347;53.232;6.556;2022-10-17T08:55:26;14.50;;;9.50;;
29358;SDS011;16347;53.232;6.556;2022-10-17T08:58:00;15.35;;;8.68;;
29358;SDS011;16347;53.232;6.556;2022-10-17T09:00:29;16.60;;;9.23;;
29358;SDS011;16347;53.232;6.556;2022-10-17T09:03:03;15.68;;;9.80;;
29358;SDS011;16347;53.232;6.556;2022-10-17T09:05:42;19.83;;;9.85;;
29358;SDS011;16347;53.232;6.556;2022-10-17T09:08:21;18.17;;;8.63;;
29358;SDS011;16347;53.232;6.556;2022-10-17T09:10:59;14.80;;;8.88;;
29358;SDS011;16347;53.232;6.556;2022-10-17T09:13:45;16.92;;;9.07;;
29358;SDS011;16347;53.232;6.556;2022-10-17T09:16:35;13.15;;;8.18;;
29358;SDS011;16347;53.232;6.556;2022-10-17T09:19:14;15.25;;;8.90;;
29358;SDS011;16347;53.232;6.556;2022-10-17T09:21:46;30.40;;;9.45;;
29358;SDS011;16347;53.232;6.556;2022-10-17T09:24:21;20.17;;;8.85;;
29358;SDS011;16347;53.232;6.556;2022-10-17T09:26:54;14.98;;;8.57;;
29358;SDS011;16347;53.232;6.556;2022-10-17T09:29:24;13.30;;;8.32;;
29358;SDS011;16347;53.232;6.556;2022-10-17T09:32:03;14.65;;;8.55;;
29358;SDS011;16347;53.232;6.556;2022-10-17T09:34:37;15.60;;;9.05;;
29358;SDS011;16347;53.232;6.556;2022-10-17T09:37:08;15.77;;;8.90;;
29358;SDS011;16347;53.232;6.556;2022-10-17T09:39:40;16.95;;;9.10;;
29358;SDS011;16347;53.232;6.556;2022-10-17T09:42:11;15.75;;;9.48;;
29358;SDS011;16347;53.232;6.556;2022-10-17T09:44:46;17.70;;;8.80;;
29358;SDS011;16347;53.232;6.556;2022-10-17T09:47:19;14.35;;;8.75;;
29358;SDS011;16347;53.232;6.556;2022-10-17T09:49:52;17.75;;;8.60;;
29358;SDS011;16347;53.232;6.556;2022-10-17T09:52:23;14.45;;;9.48;;
29358;SDS011;16347;53.232;6.556;2022-10-17T09:54:56;16.58;;;8.35;;
29358;SDS011;16347;53.232;6.556;2022-10-17T09:57:28;16.23;;;9.60;;
29358;SDS011;16347;53.232;6.556;2022-10-17T10:00:22;22.23;;;9.77;;
29358;SDS011;16347;53.232;6.556;2022-10-17T10:03:06;15.88;;;9.93;;
29358;SDS011;16347;53.232;6.556;2022-10-17T10:05:35;13.07;;;9.25;;
29358;SDS011;16347;53.232;6.556;2022-10-17T10:08:04;14.50;;;9.98;;
29358;SDS011;16347;53.232;6.556;2022-10-17T10:10:39;10.32;;;8.63;;
29358;SDS011;16347;53.232;6.556;2022-10-17T10:13:15;13.07;;;9.63;;
29358;SDS011;16347;53.232;6.556;2022-10-17T10:15:47;17.73;;;10.55;;
29358;SDS011;16347;53.232;6.556;2022-10-17T10:18:25;16.27;;;11.73;;
29358;SDS011;16347;53.232;6.556;2022-10-17T10:21:02;16.50;;;10.93;;
29358;SDS011;16347;53.232;6.556;2022-10-17T10:23:32;20.08;;;11.90;;
29358;SDS011;16347;53.232;6.556;2022-10-17T10:26:13;26.92;;;12.57;;
29358;SDS011;16347;53.232;6.556;2022-10-17T10:28:50;17.90;;;10.73;;
29358;SDS011;16347;53.232;6.556;2022-10-17T10:31:26;22.80;;;11.73;;
29358;SDS011;16347;53.232;6.556;2022-10-17T10:33:57;28.40;;;11.50;;
29358;SDS011;16347;53.232;6.556;2022-10-17T10:36:40;19.70;;;11.95;;
29358;SDS011;16347;53.232;6.556;2022-10-17T10:39:14;16.95;;;11.50;;
29358;SDS011;16347;53.232;6.556;2022-10-17T10:42:00;20.17;;;11.68;;
29358;SDS011;16347;53.232;6.556;2022-10-17T10:44:29;18.25;;;12.07;;
29358;SDS011;16347;53.232;6.556;2022-10-17T10:47:16;17.52;;;11.55;;
29358;SDS011;16347;53.232;6.556;2022-10-17T10:49:48;19.15;;;13.32;;
29358;SDS011;16347;53.232;6.556;2022-10-17T10:52:23;26.48;;;13.60;;
29358;SDS011;16347;53.232;6.556;2022-10-17T10:55:01;18.60;;;12.40;;
29358;SDS011;16347;53.232;6.556;2022-10-17T10:57:37;25.00;;;13.88;;
29358;SDS011;16347;53.232;6.556;2022-10-17T11:00:08;25.15;;;14.20;;
29358;SDS011;16347;53.232;6.556;2022-10-17T11:02:44;21.75;;;13.95;;
29358;SDS011;16347;53.232;6.556;2022-10-17T11:05:20;22.17;;;13.63;;
29358;SDS011;16347;53.232;6.556;2022-10-17T11:07:57;23.60;;;13.07;;
29358;SDS011;16347;53.232;6.556;2022-10-17T11:10:34;20.70;;;13.60;;
29358;SDS011;16347;53.232;6.556;2022-10-17T11:13:10;21.90;;;12.02;;
29358;SDS011;16347;53.232;6.556;2022-10-17T11:15:45;18.33;;;11.27;;
29358;SDS011;16347;53.232;6.556;2022-10-17T11:20:50;17.73;;;12.68;;
29358;SDS011;16347;53.232;6.556;2022-10-17T11:23:23;17.08;;;12.32;;
29358;SDS011;16347;53.232;6.556;2022-10-17T11:25:58;20.13;;;12.57;;
29358;SDS011;16347;53.232;6.556;2022-10-17T11:28:29;20.17;;;12.25;;
29358;SDS011;16347;53.232;6.556;2022-10-17T11:30:58;22.75;;;12.70;;
29358;SDS011;16347;53.232;6.556;2022-10-17T11:33:37;20.70;;;12.75;;
29358;SDS011;16347;53.232;6.556;2022-10-17T11:36:12;25.48;;;12.23;;
29358;SDS011;16347;53.232;6.556;2022-10-17T11:38:44;21.13;;;12.65;;
29358;SDS011;16347;53.232;6.556;2022-10-17T11:41:17;21.88;;;13.00;;
29358;SDS011;16347;53.232;6.556;2022-10-17T11:43:54;19.17;;;12.38;;
29358;SDS011;16347;53.232;6.556;2022-10-17T11:46:26;24.80;;;12.00;;
29358;SDS011;16347;53.232;6.556;2022-10-17T11:48:58;17.40;;;12.40;;
29358;SDS011;16347;53.232;6.556;2022-10-17T11:51:35;15.90;;;10.98;;
29358;SDS011;16347;53.232;6.556;2022-10-17T11:54:29;27.13;;;10.77;;
29358;SDS011;16347;53.232;6.556;2022-10-17T11:57:05;16.77;;;10.65;;
29358;SDS011;16347;53.232;6.556;2022-10-17T11:59:52;15.55;;;9.57;;
29358;SDS011;16347;53.232;6.556;2022-10-17T12:02:31;18.88;;;8.25;;
29358;SDS011;16347;53.232;6.556;2022-10-17T12:05:11;17.15;;;8.68;;
29358;SDS011;16347;53.232;6.556;2022-10-17T12:07:50;15.02;;;7.25;;
29358;SDS011;16347;53.232;6.556;2022-10-17T12:10:32;12.05;;;8.13;;
29358;SDS011;16347;53.232;6.556;2022-10-17T12:16:36;11.85;;;6.80;;
29358;SDS011;16347;53.232;6.556;2022-10-17T12:19:20;9.82;;;6.07;;
29358;SDS011;16347;53.232;6.556;2022-10-17T12:22:00;11.55;;;6.47;;
29358;SDS011;16347;53.232;6.556;2022-10-17T12:24:38;8.13;;;5.85;;
29358;SDS011;16347;53.232;6.556;2022-10-17T12:27:21;8.43;;;6.20;;
29358;SDS011;16347;53.232;6.556;2022-10-17T12:30:00;14.60;;;6.53;;
29358;SDS011;16347;53.232;6.556;2022-10-17T12:32:31;9.05;;;6.63;;
29358;SDS011;16347;53.232;6.556;2022-10-17T12:35:20;11.57;;;6.38;;
29358;SDS011;16347;53.232;6.556;2022-10-17T12:38:14;9.10;;;6.45;;
29358;SDS011;16347;53.232;6.556;2022-10-17T12:40:55;9.85;;;6.70;;
29358;SDS011;16347;53.232;6.556;2022-10-17T12:43:35;12.20;;;6.90;;
29358;SDS011;16347;53.232;6.556;2022-10-17T12:46:41;12.02;;;7.60;;
29358;SDS011;16347;53.232;6.556;2022-10-17T12:49:35;15.95;;;7.93;;
29358;SDS011;16347;53.232;6.556;2022-10-17T12:52:15;11.38;;;7.38;;
29358;SDS011;16347;53.232;6.556;2022-10-17T12:54:47;16.52;;;7.47;;
29358;SDS011;16347;53.232;6.556;2022-10-17T12:57:38;11.95;;;7.25;;
29358;SDS011;16347;53.232;6.556;2022-10-17T13:00:14;12.60;;;7.18;;
29358;SDS011;16347;53.232;6.556;2022-10-17T13:02:46;12.82;;;6.85;;
29358;SDS011;16347;53.232;6.556;2022-10-17T13:05:18;10.18;;;6.30;;
29358;SDS011;16347;53.232;6.556;2022-10-17T13:07:52;9.82;;;5.90;;
29358;SDS011;16347;53.232;6.556;2022-10-17T13:10:25;10.35;;;6.65;;
29358;SDS011;16347;53.232;6.556;2022-10-17T13:12:59;9.77;;;6.35;;
29358;SDS011;16347;53.232;6.556;2022-10-17T13:15:32;13.10;;;5.18;;
29358;SDS011;16347;53.232;6.556;2022-10-17T13:18:02;10.80;;;5.47;;
29358;SDS011;16347;53.232;6.556;2022-10-17T13:20:31;10.13;;;5.07;;
29358;SDS011;16347;53.232;6.556;2022-10-17T13:22:59;9.63;;;5.05;;
29358;SDS011;16347;53.232;6.556;2022-10-17T13:25:29;14.20;;;7.47;;
29358;SDS011;16347;53.232;6.556;2022-10-17T13:28:04;14.27;;;7.15;;
29358;SDS011;16347;53.232;6.556;2022-10-17T13:30:34;11.07;;;6.35;;
29358;SDS011;16347;53.232;6.556;2022-10-17T13:33:13;7.57;;;5.50;;
29358;SDS011;16347;53.232;6.556;2022-10-17T13:35:53;7.00;;;5.22;;
29358;SDS011;16347;53.232;6.556;2022-10-17T13:38:26;12.45;;;6.00;;
29358;SDS011;16347;53.232;6.556;2022-10-17T13:41:03;12.30;;;6.63;;
29358;SDS011;16347;53.232;6.556;2022-10-17T13:43:59;12.85;;;7.60;;
29358;SDS011;16347;53.232;6.556;2022-10-17T13:46:30;13.07;;;6.00;;
29358;SDS011;16347;53.232;6.556;2022-10-17T13:49:09;16.55;;;5.75;;
29358;SDS011;16347;53.232;6.556;2022-10-17T13:51:42;10.95;;;5.95;;
29358;SDS011;16347;53.232;6.556;2022-10-17T13:57:05;7.85;;;4.97;;
29358;SDS011;16347;53.232;6.556;2022-10-17T13:59:43;6.55;;;4.65;;
29358;SDS011;16347;53.232;6.556;2022-10-17T14:02:15;7.20;;;4.45;;
29358;SDS011;16347;53.232;6.556;2022-10-17T14:04:46;7.10;;;4.15;;
29358;SDS011;16347;53.232;6.556;2022-10-17T14:07:34;7.72;;;3.50;;
29358;SDS011;16347;53.232;6.556;2022-10-17T14:10:25;5.45;;;2.88;;
29358;SDS011;16347;53.232;6.556;2022-10-17T14:13:01;11.52;;;4.05;;
29358;SDS011;16347;53.232;6.556;2022-10-17T14:15:32;10.07;;;3.42;;
29358;SDS011;16347;53.232;6.556;2022-10-17T14:18:03;7.03;;;2.78;;
29358;SDS011;16347;53.232;6.556;2022-10-17T14:20:34;9.35;;;3.28;;
29358;SDS011;16347;53.232;6.556;2022-10-17T14:23:29;8.43;;;2.90;;
29358;SDS011;16347;53.232;6.556;2022-10-17T14:26:08;12.48;;;3.75;;
29358;SDS011;16347;53.232;6.556;2022-10-17T14:28:41;9.65;;;3.42;;
29358;SDS011;16347;53.232;6.556;2022-10-17T14:31:12;4.68;;;3.28;;
29358;SDS011;16347;53.232;6.556;2022-10-17T14:33:47;9.38;;;3.17;;
29358;SDS011;16347;53.232;6.556;2022-10-17T14:36:18;9.00;;;3.40;;
29358;SDS011;16347;53.232;6.556;2022-10-17T14:38:49;5.05;;;3.22;;
29358;SDS011;16347;53.232;6.556;2022-10-17T14:41:20;7.35;;;3.67;;
29358;SDS011;16347;53.232;6.556;2022-10-17T14:44:16;9.80;;;4.03;;
29358;SDS011;16347;53.232;6.556;2022-10-17T14:46:49;8.13;;;3.40;;
29358;SDS011;16347;53.232;6.556;2022-10-17T14:49:22;7.15;;;3.55;;
29358;SDS011;16347;53.232;6.556;2022-10-17T14:54:55;7.90;;;3.80;;
29358;SDS011;16347;53.232;6.556;2022-10-17T14:57:27;8.35;;;4.25;;
29358;SDS011;16347;53.232;6.556;2022-10-17T15:00:08;11.88;;;4.18;;
29358;SDS011;16347;53.232;6.556;2022-10-17T15:02:40;8.70;;;4.90;;
29358;SDS011;16347;53.232;6.556;2022-10-17T15:05:08;8.77;;;4.85;;
29358;SDS011;16347;53.232;6.556;2022-10-17T15:07:39;12.93;;;4.70;;
29358;SDS011;16347;53.232;6.556;2022-10-17T15:10:10;9.85;;;3.85;;
29358;SDS011;16347;53.232;6.556;2022-10-17T15:12:49;6.90;;;3.58;;
29358;SDS011;16347;53.232;6.556;2022-10-17T15:15:36;9.60;;;3.35;;
29358;SDS011;16347;53.232;6.556;2022-10-17T15:18:06;13.43;;;3.83;;
29358;SDS011;16347;53.232;6.556;2022-10-17T15:20:37;8.43;;;3.75;;
29358;SDS011;16347;53.232;6.556;2022-10-17T15:23:05;15.48;;;4.60;;
29358;SDS011;16347;53.232;6.556;2022-10-17T15:25:33;11.07;;;3.35;;
29358;SDS011;16347;53.232;6.556;2022-10-17T15:28:01;8.75;;;3.47;;
29358;SDS011;16347;53.232;6.556;2022-10-17T15:30:30;7.15;;;3.58;;
29358;SDS011;16347;53.232;6.556;2022-10-17T15:33:03;6.03;;;3.30;;
29358;SDS011;16347;53.232;6.556;2022-10-17T15:35:34;6.20;;;3.33;;